RPA440 KORD-KIND
Flight info
| Callsign | RPA440 |
|---|---|
| Flight time | 0h 36m |
| Altitude | 21000 |
| Route | EARND ELANR JAKKS2 |
| Aircraft | E75L/M-SDE3GILORVW/S |
Departure
| Time | 2026-05-07 11:47 |
|---|---|
| Airport | Chicago O'Hare International Airport (KORD) |
Arrival
| Time | 2026-05-07 12:23 |
|---|---|
| Airport | Indianapolis International Airport (KIND) |
| Time | Latitude | Longitude | Altitude | Speed | Heading |
|---|---|---|---|---|---|
| 2026-05-07 11:27 | 41.97407 | -87.90095 | 658 ft | 0 kts | 90° |
| 2026-05-07 11:35 | 41.97407 | -87.90108 | 658 ft | 2 kts | 90° |
| 2026-05-07 11:35 | 41.97407 | -87.90129 | 658 ft | 2 kts | 102° |
| 2026-05-07 11:36 | 41.97414 | -87.90147 | 659 ft | 2 kts | 129° |
| 2026-05-07 11:36 | 41.97425 | -87.90160 | 659 ft | 2 kts | 154° |
| 2026-05-07 11:36 | 41.97438 | -87.90165 | 659 ft | 0 kts | 176° |
| 2026-05-07 11:36 | 41.97445 | -87.90165 | 659 ft | 1 kts | 181° |
| 2026-05-07 11:37 | 41.97446 | -87.90165 | 659 ft | 0 kts | 180° |
| 2026-05-07 11:38 | 41.97443 | -87.90165 | 659 ft | 0 kts | 180° |
| 2026-05-07 11:39 | 41.97433 | -87.90165 | 659 ft | 2 kts | 180° |
| 2026-05-07 11:39 | 41.97398 | -87.90165 | 659 ft | 7 kts | 180° |
| 2026-05-07 11:39 | 41.97324 | -87.90165 | 659 ft | 12 kts | 180° |
| 2026-05-07 11:39 | 41.97237 | -87.90165 | 659 ft | 12 kts | 176° |
| 2026-05-07 11:40 | 41.97149 | -87.90133 | 659 ft | 13 kts | 177° |
| 2026-05-07 11:40 | 41.97052 | -87.90121 | 658 ft | 14 kts | 141° |
| 2026-05-07 11:40 | 41.97040 | -87.89980 | 657 ft | 16 kts | 90° |
| 2026-05-07 11:40 | 41.97041 | -87.89825 | 656 ft | 17 kts | 90° |
| 2026-05-07 11:41 | 41.97041 | -87.89646 | 652 ft | 20 kts | 89° |
| 2026-05-07 11:41 | 41.97042 | -87.89463 | 652 ft | 10 kts | 90° |
| 2026-05-07 11:41 | 41.97042 | -87.89391 | 652 ft | 0 kts | 90° |
| 2026-05-07 11:41 | 41.97042 | -87.89369 | 652 ft | 4 kts | 90° |
| 2026-05-07 11:42 | 41.97042 | -87.89294 | 652 ft | 11 kts | 90° |
| 2026-05-07 11:42 | 41.97042 | -87.89163 | 652 ft | 16 kts | 90° |
| 2026-05-07 11:42 | 41.97043 | -87.88992 | 653 ft | 19 kts | 90° |
| 2026-05-07 11:42 | 41.97042 | -87.88808 | 653 ft | 19 kts | 91° |
| 2026-05-07 11:43 | 41.97043 | -87.88620 | 653 ft | 20 kts | 89° |
| 2026-05-07 11:43 | 41.97043 | -87.88425 | 653 ft | 21 kts | 90° |
| 2026-05-07 11:43 | 41.97043 | -87.88358 | 653 ft | 0 kts | 89° |
| 2026-05-07 11:43 | 41.97043 | -87.88348 | 653 ft | 1 kts | 89° |
| 2026-05-07 11:44 | 41.97043 | -87.88323 | 653 ft | 4 kts | 89° |
| 2026-05-07 11:44 | 41.97044 | -87.88258 | 653 ft | 9 kts | 89° |
| 2026-05-07 11:44 | 41.97044 | -87.88148 | 651 ft | 9 kts | 91° |
| 2026-05-07 11:44 | 41.97044 | -87.88133 | 651 ft | 2 kts | 91° |
| 2026-05-07 11:45 | 41.97041 | -87.88093 | 650 ft | 6 kts | 107° |
| 2026-05-07 11:45 | 41.97004 | -87.88035 | 650 ft | 10 kts | 139° |
| 2026-05-07 11:45 | 41.96948 | -87.88031 | 649 ft | 8 kts | 213° |
| 2026-05-07 11:45 | 41.96906 | -87.88081 | 650 ft | 3 kts | 221° |
| 2026-05-07 11:46 | 41.96905 | -87.88082 | 650 ft | 0 kts | 221° |
| 2026-05-07 11:46 | 41.96905 | -87.88083 | 650 ft | 1 kts | 222° |
| 2026-05-07 11:46 | 41.96719 | -87.88305 | 653 ft | 73 kts | 221° |
| 2026-05-07 11:47 | 41.96155 | -87.88972 | 653 ft | 138 kts | 222° |
| 2026-05-07 11:47 | 41.95347 | -87.89934 | 901 ft | 165 kts | 222° |
| 2026-05-07 11:47 | 41.94405 | -87.91055 | 1196 ft | 198 kts | 225° |
| 2026-05-07 11:47 | 41.93421 | -87.92356 | 2028 ft | 202 kts | 227° |
| 2026-05-07 11:48 | 41.92329 | -87.93550 | 2847 ft | 211 kts | 217° |
| 2026-05-07 11:48 | 41.91016 | -87.94417 | 3646 ft | 223 kts | 191° |
| 2026-05-07 11:48 | 41.89421 | -87.94085 | 4187 ft | 250 kts | 156° |
| 2026-05-07 11:48 | 41.87809 | -87.92937 | 4650 ft | 273 kts | 153° |
| 2026-05-07 11:49 | 41.86131 | -87.91657 | 5310 ft | 286 kts | 152° |
| 2026-05-07 11:49 | 41.84382 | -87.90292 | 6112 ft | 292 kts | 152° |
| 2026-05-07 11:49 | 41.82624 | -87.88904 | 6942 ft | 297 kts | 152° |
| 2026-05-07 11:49 | 41.80842 | -87.87491 | 7778 ft | 300 kts | 152° |
| 2026-05-07 11:50 | 41.79044 | -87.86063 | 8587 ft | 303 kts | 152° |
| 2026-05-07 11:50 | 41.77231 | -87.84623 | 9339 ft | 308 kts | 152° |
| 2026-05-07 11:50 | 41.75396 | -87.83167 | 10097 ft | 311 kts | 152° |
| 2026-05-07 11:50 | 41.73516 | -87.81675 | 10818 ft | 315 kts | 153° |
| 2026-05-07 11:51 | 41.71626 | -87.80177 | 11398 ft | 324 kts | 153° |
| 2026-05-07 11:51 | 41.69660 | -87.78619 | 11976 ft | 332 kts | 153° |
| 2026-05-07 11:51 | 41.67659 | -87.77034 | 12544 ft | 340 kts | 154° |
| 2026-05-07 11:51 | 41.65601 | -87.75406 | 13183 ft | 345 kts | 154° |
| 2026-05-07 11:52 | 41.63550 | -87.73783 | 13837 ft | 348 kts | 155° |
| 2026-05-07 11:52 | 41.61444 | -87.72119 | 14547 ft | 350 kts | 155° |
| 2026-05-07 11:52 | 41.59370 | -87.70483 | 15224 ft | 352 kts | 155° |
| 2026-05-07 11:52 | 41.57262 | -87.68819 | 15884 ft | 354 kts | 155° |
| 2026-05-07 11:53 | 41.55102 | -87.67117 | 16499 ft | 358 kts | 155° |
| 2026-05-07 11:53 | 41.52946 | -87.65419 | 17115 ft | 362 kts | 155° |
| 2026-05-07 11:53 | 41.50782 | -87.63716 | 17689 ft | 366 kts | 156° |
| 2026-05-07 11:53 | 41.48566 | -87.61974 | 18267 ft | 370 kts | 156° |
| 2026-05-07 11:54 | 41.46337 | -87.60222 | 18861 ft | 373 kts | 156° |
| 2026-05-07 11:54 | 41.44109 | -87.58472 | 19389 ft | 377 kts | 156° |
| 2026-05-07 11:54 | 41.41728 | -87.57177 | 19885 ft | 364 kts | 177° |
| 2026-05-07 11:54 | 41.39239 | -87.56673 | 20402 ft | 363 kts | 180° |
| 2026-05-07 11:55 | 41.36752 | -87.56226 | 20904 ft | 362 kts | 181° |
| 2026-05-07 11:55 | 41.34214 | -87.55781 | 21024 ft | 371 kts | 181° |
| 2026-05-07 11:55 | 41.31598 | -87.55328 | 21050 ft | 389 kts | 181° |
| 2026-05-07 11:55 | 41.28929 | -87.54861 | 21041 ft | 391 kts | 180° |
| 2026-05-07 11:56 | 41.26186 | -87.54382 | 21044 ft | 394 kts | 181° |
| 2026-05-07 11:56 | 41.23510 | -87.53916 | 21040 ft | 391 kts | 181° |
| 2026-05-07 11:56 | 41.20795 | -87.53445 | 21041 ft | 393 kts | 181° |
| 2026-05-07 11:56 | 41.18087 | -87.52792 | 21038 ft | 396 kts | 176° |
| 2026-05-07 11:57 | 41.15361 | -87.52048 | 21038 ft | 397 kts | 177° |
| 2026-05-07 11:57 | 41.12678 | -87.51326 | 21046 ft | 397 kts | 177° |
| 2026-05-07 11:57 | 41.09948 | -87.50592 | 21049 ft | 398 kts | 177° |
| 2026-05-07 11:57 | 41.07232 | -87.49863 | 21046 ft | 398 kts | 177° |
| 2026-05-07 11:58 | 41.04504 | -87.49133 | 21052 ft | 399 kts | 177° |
| 2026-05-07 11:58 | 41.01805 | -87.48409 | 21055 ft | 397 kts | 177° |
| 2026-05-07 11:58 | 40.99068 | -87.47677 | 21054 ft | 399 kts | 177° |
| 2026-05-07 11:58 | 40.96375 | -87.46957 | 21061 ft | 396 kts | 177° |
| 2026-05-07 11:59 | 40.93668 | -87.46234 | 21056 ft | 398 kts | 177° |
| 2026-05-07 11:59 | 40.90945 | -87.45507 | 21057 ft | 397 kts | 177° |
| 2026-05-07 11:59 | 40.88249 | -87.44788 | 21060 ft | 397 kts | 177° |
| 2026-05-07 11:59 | 40.85547 | -87.44069 | 21061 ft | 397 kts | 177° |
| 2026-05-07 12:00 | 40.82838 | -87.43347 | 21059 ft | 397 kts | 177° |
| 2026-05-07 12:00 | 40.80102 | -87.42619 | 21059 ft | 396 kts | 177° |
| 2026-05-07 12:00 | 40.77385 | -87.41898 | 21069 ft | 397 kts | 177° |
| 2026-05-07 12:00 | 40.74686 | -87.41180 | 21060 ft | 396 kts | 177° |
| 2026-05-07 12:01 | 40.71975 | -87.40462 | 21060 ft | 398 kts | 177° |
| 2026-05-07 12:01 | 40.69266 | -87.39744 | 21064 ft | 396 kts | 177° |
| 2026-05-07 12:01 | 40.66534 | -87.39020 | 21063 ft | 398 kts | 177° |
| 2026-05-07 12:01 | 40.63798 | -87.38296 | 21059 ft | 397 kts | 177° |
| 2026-05-07 12:02 | 40.61101 | -87.37582 | 21065 ft | 396 kts | 177° |
| 2026-05-07 12:02 | 40.58419 | -87.36872 | 21051 ft | 387 kts | 177° |
| 2026-05-07 12:02 | 40.55793 | -87.36179 | 21070 ft | 384 kts | 178° |
| 2026-05-07 12:02 | 40.53194 | -87.35494 | 21068 ft | 381 kts | 178° |
| 2026-05-07 12:03 | 40.50588 | -87.34808 | 21055 ft | 384 kts | 178° |
| 2026-05-07 12:03 | 40.47978 | -87.34122 | 20671 ft | 382 kts | 178° |
| 2026-05-07 12:03 | 40.45408 | -87.33006 | 20256 ft | 398 kts | 158° |
| 2026-05-07 12:03 | 40.43284 | -87.30669 | 19820 ft | 415 kts | 136° |
| 2026-05-07 12:04 | 40.41467 | -87.27685 | 19347 ft | 412 kts | 134° |
| 2026-05-07 12:04 | 40.39676 | -87.24769 | 18888 ft | 406 kts | 135° |
| 2026-05-07 12:04 | 40.37904 | -87.21907 | 18435 ft | 404 kts | 135° |
| 2026-05-07 12:04 | 40.36139 | -87.19067 | 17997 ft | 401 kts | 135° |
| 2026-05-07 12:05 | 40.34379 | -87.16236 | 17550 ft | 397 kts | 135° |
| 2026-05-07 12:05 | 40.32652 | -87.13463 | 17129 ft | 393 kts | 134° |
| 2026-05-07 12:05 | 40.30931 | -87.10701 | 16683 ft | 390 kts | 134° |
| 2026-05-07 12:05 | 40.29236 | -87.07983 | 16257 ft | 386 kts | 134° |
| 2026-05-07 12:06 | 40.27537 | -87.05263 | 15817 ft | 384 kts | 134° |
| 2026-05-07 12:06 | 40.25851 | -87.02565 | 15410 ft | 380 kts | 134° |
| 2026-05-07 12:06 | 40.24183 | -86.99900 | 14955 ft | 379 kts | 133° |
| 2026-05-07 12:06 | 40.22524 | -86.97250 | 14562 ft | 375 kts | 133° |
| 2026-05-07 12:07 | 40.20879 | -86.94625 | 14142 ft | 372 kts | 133° |
| 2026-05-07 12:07 | 40.19263 | -86.92047 | 13745 ft | 368 kts | 133° |
| 2026-05-07 12:07 | 40.17637 | -86.89456 | 13319 ft | 364 kts | 133° |
| 2026-05-07 12:07 | 40.16019 | -86.86953 | 13057 ft | 357 kts | 137° |
| 2026-05-07 12:08 | 40.14313 | -86.84609 | 13060 ft | 357 kts | 137° |
| 2026-05-07 12:08 | 40.12602 | -86.82258 | 13059 ft | 358 kts | 137° |
| 2026-05-07 12:08 | 40.10875 | -86.79884 | 13037 ft | 359 kts | 137° |
| 2026-05-07 12:08 | 40.09150 | -86.77512 | 12871 ft | 361 kts | 137° |
| 2026-05-07 12:09 | 40.07422 | -86.75140 | 12485 ft | 356 kts | 136° |
| 2026-05-07 12:09 | 40.05732 | -86.72820 | 12093 ft | 353 kts | 136° |
| 2026-05-07 12:09 | 40.04045 | -86.70506 | 11732 ft | 349 kts | 136° |
| 2026-05-07 12:09 | 40.02401 | -86.68253 | 11367 ft | 343 kts | 136° |
| 2026-05-07 12:10 | 40.00766 | -86.66013 | 10980 ft | 334 kts | 136° |
| 2026-05-07 12:10 | 39.99186 | -86.63852 | 10613 ft | 324 kts | 136° |
| 2026-05-07 12:10 | 39.97665 | -86.61771 | 10265 ft | 315 kts | 136° |
| 2026-05-07 12:10 | 39.96195 | -86.59723 | 9947 ft | 306 kts | 135° |
| 2026-05-07 12:11 | 39.94761 | -86.57723 | 9621 ft | 298 kts | 135° |
| 2026-05-07 12:11 | 39.93345 | -86.55749 | 9294 ft | 291 kts | 135° |
| 2026-05-07 12:11 | 39.91991 | -86.53861 | 8974 ft | 284 kts | 134° |
| 2026-05-07 12:11 | 39.90655 | -86.52000 | 8675 ft | 278 kts | 134° |
| 2026-05-07 12:12 | 39.89337 | -86.50166 | 8370 ft | 274 kts | 134° |
| 2026-05-07 12:12 | 39.88055 | -86.48381 | 8068 ft | 273 kts | 133° |
| 2026-05-07 12:12 | 39.86749 | -86.46564 | 7767 ft | 272 kts | 133° |
| 2026-05-07 12:12 | 39.85450 | -86.44781 | 7496 ft | 269 kts | 134° |
| 2026-05-07 12:13 | 39.84159 | -86.43074 | 7223 ft | 263 kts | 134° |
| 2026-05-07 12:13 | 39.82886 | -86.41393 | 6944 ft | 257 kts | 134° |
| 2026-05-07 12:13 | 39.81634 | -86.39740 | 6661 ft | 252 kts | 134° |
| 2026-05-07 12:13 | 39.80454 | -86.38107 | 6380 ft | 247 kts | 120° |
| 2026-05-07 12:14 | 39.80014 | -86.36076 | 6177 ft | 234 kts | 78° |
| 2026-05-07 12:14 | 39.80638 | -86.34191 | 6143 ft | 223 kts | 47° |
| 2026-05-07 12:14 | 39.81631 | -86.32657 | 6096 ft | 225 kts | 44° |
| 2026-05-07 12:14 | 39.82695 | -86.31141 | 6069 ft | 224 kts | 42° |
| 2026-05-07 12:15 | 39.83775 | -86.29667 | 6061 ft | 224 kts | 42° |
| 2026-05-07 12:15 | 39.84848 | -86.28212 | 6056 ft | 225 kts | 45° |
| 2026-05-07 12:15 | 39.85862 | -86.26641 | 6056 ft | 226 kts | 47° |
| 2026-05-07 12:15 | 39.86844 | -86.25046 | 6054 ft | 226 kts | 47° |
| 2026-05-07 12:16 | 39.87828 | -86.23449 | 6052 ft | 226 kts | 47° |
| 2026-05-07 12:16 | 39.88795 | -86.21873 | 6049 ft | 227 kts | 47° |
| 2026-05-07 12:16 | 39.89779 | -86.20280 | 6046 ft | 227 kts | 47° |
| 2026-05-07 12:16 | 39.90775 | -86.18668 | 6016 ft | 228 kts | 47° |
| 2026-05-07 12:17 | 39.91755 | -86.17085 | 5955 ft | 228 kts | 47° |
| 2026-05-07 12:17 | 39.92729 | -86.15509 | 5894 ft | 226 kts | 47° |
| 2026-05-07 12:17 | 39.93718 | -86.13913 | 5729 ft | 226 kts | 47° |
| 2026-05-07 12:17 | 39.94322 | -86.12017 | 5576 ft | 236 kts | 86° |
| 2026-05-07 12:18 | 39.93780 | -86.10029 | 5861 ft | 242 kts | 132° |
| 2026-05-07 12:18 | 39.92368 | -86.08887 | 6049 ft | 244 kts | 169° |
| 2026-05-07 12:18 | 39.90638 | -86.08901 | 5512 ft | 250 kts | 191° |
| 2026-05-07 12:18 | 39.89010 | -86.09469 | 5165 ft | 240 kts | 219° |
| 2026-05-07 12:19 | 39.87816 | -86.10886 | 5077 ft | 226 kts | 222° |
| 2026-05-07 12:19 | 39.86583 | -86.12125 | 5060 ft | 223 kts | 223° |
| 2026-05-07 12:19 | 39.85383 | -86.13424 | 4977 ft | 227 kts | 226° |
| 2026-05-07 12:19 | 39.84246 | -86.14790 | 4610 ft | 218 kts | 228° |
| 2026-05-07 12:20 | 39.83181 | -86.16119 | 4249 ft | 207 kts | 229° |
| 2026-05-07 12:20 | 39.82184 | -86.17384 | 3968 ft | 196 kts | 229° |
| 2026-05-07 12:20 | 39.81204 | -86.18633 | 3513 ft | 196 kts | 230° |
| 2026-05-07 12:20 | 39.80232 | -86.19876 | 3059 ft | 202 kts | 229° |
| 2026-05-07 12:21 | 39.79228 | -86.21156 | 2712 ft | 199 kts | 228° |
| 2026-05-07 12:21 | 39.78268 | -86.22375 | 2426 ft | 189 kts | 228° |
| 2026-05-07 12:21 | 39.77340 | -86.23560 | 2109 ft | 178 kts | 228° |
| 2026-05-07 12:21 | 39.76500 | -86.24627 | 1839 ft | 161 kts | 228° |
| 2026-05-07 12:22 | 39.75739 | -86.25596 | 1603 ft | 146 kts | 227° |
| 2026-05-07 12:22 | 39.75011 | -86.26485 | 1426 ft | 139 kts | 226° |
| 2026-05-07 12:22 | 39.74340 | -86.27348 | 1251 ft | 135 kts | 228° |
| 2026-05-07 12:22 | 39.73670 | -86.28211 | 1076 ft | 136 kts | 226° |
| 2026-05-07 12:23 | 39.73002 | -86.29067 | 863 ft | 131 kts | 226° |
| 2026-05-07 12:23 | 39.72390 | -86.29857 | 770 ft | 108 kts | 223° |
| 2026-05-07 12:23 | 39.71973 | -86.30384 | 760 ft | 59 kts | 225° |
| 2026-05-07 12:23 | 39.71794 | -86.30614 | 755 ft | 13 kts | 225° |
| 2026-05-07 12:24 | 39.71769 | -86.30646 | 754 ft | 19 kts | 223° |
| 2026-05-07 12:24 | 39.71645 | -86.30801 | 754 ft | 26 kts | 225° |
| 2026-05-07 12:24 | 39.71510 | -86.30963 | 751 ft | 27 kts | 217° |
| 2026-05-07 12:24 | 39.71340 | -86.30998 | 750 ft | 21 kts | 157° |
| 2026-05-07 12:25 | 39.71365 | -86.30866 | 751 ft | 18 kts | 44° |
| 2026-05-07 12:25 | 39.71453 | -86.30746 | 753 ft | 18 kts | 45° |
| 2026-05-07 12:25 | 39.71544 | -86.30631 | 754 ft | 18 kts | 43° |
| 2026-05-07 12:25 | 39.71634 | -86.30518 | 756 ft | 17 kts | 45° |
| 2026-05-07 12:26 | 39.71720 | -86.30405 | 759 ft | 17 kts | 50° |
| 2026-05-07 12:26 | 39.71801 | -86.30297 | 762 ft | 16 kts | 44° |
| 2026-05-07 12:26 | 39.71881 | -86.30200 | 763 ft | 15 kts | 46° |
| 2026-05-07 12:26 | 39.71850 | -86.30087 | 766 ft | 14 kts | 129° |
| 2026-05-07 12:27 | 39.71795 | -86.29990 | 767 ft | 12 kts | 84° |
| 2026-05-07 12:27 | 39.71834 | -86.29900 | 769 ft | 11 kts | 80° |
| 2026-05-07 12:27 | 39.71812 | -86.29812 | 771 ft | 9 kts | 114° |
| 2026-05-07 12:27 | 39.71785 | -86.29773 | 772 ft | 0 kts | 140° |